sensor_id;sensor_type;location;lat;lon;timestamp;P1;durP1;ratioP1;P2;durP2;ratioP2
24631;SDS011;59977;48.782;9.190;2023-11-22T00:00:54;16.27;;;8.60;;
24631;SDS011;59977;48.782;9.190;2023-11-22T00:03:20;11.00;;;7.45;;
24631;SDS011;59977;48.782;9.190;2023-11-22T00:05:46;8.32;;;4.95;;
24631;SDS011;59977;48.782;9.190;2023-11-22T00:08:11;7.03;;;3.35;;
24631;SDS011;59977;48.782;9.190;2023-11-22T00:10:37;4.28;;;2.88;;
24631;SDS011;59977;48.782;9.190;2023-11-22T00:13:07;4.85;;;2.72;;
24631;SDS011;59977;48.782;9.190;2023-11-22T00:15:32;3.70;;;2.92;;
24631;SDS011;59977;48.782;9.190;2023-11-22T00:17:58;3.92;;;2.65;;
24631;SDS011;59977;48.782;9.190;2023-11-22T00:20:28;4.07;;;3.00;;
24631;SDS011;59977;48.782;9.190;2023-11-22T00:22:54;4.18;;;3.20;;
24631;SDS011;59977;48.782;9.190;2023-11-22T00:25:19;5.70;;;3.35;;
24631;SDS011;59977;48.782;9.190;2023-11-22T00:27:45;6.05;;;3.25;;
24631;SDS011;59977;48.782;9.190;2023-11-22T00:30:12;4.85;;;3.28;;
24631;SDS011;59977;48.782;9.190;2023-11-22T00:32:39;5.97;;;3.88;;
24631;SDS011;59977;48.782;9.190;2023-11-22T00:35:05;5.53;;;3.72;;
24631;SDS011;59977;48.782;9.190;2023-11-22T00:37:32;5.43;;;3.92;;
24631;SDS011;59977;48.782;9.190;2023-11-22T00:39:59;5.38;;;3.83;;
24631;SDS011;59977;48.782;9.190;2023-11-22T00:42:26;4.32;;;3.58;;
24631;SDS011;59977;48.782;9.190;2023-11-22T00:44:52;5.07;;;3.60;;
24631;SDS011;59977;48.782;9.190;2023-11-22T00:47:18;7.25;;;3.70;;
24631;SDS011;59977;48.782;9.190;2023-11-22T00:49:44;5.82;;;4.20;;
24631;SDS011;59977;48.782;9.190;2023-11-22T00:52:10;7.28;;;4.07;;
24631;SDS011;59977;48.782;9.190;2023-11-22T00:54:36;6.93;;;4.85;;
24631;SDS011;59977;48.782;9.190;2023-11-22T00:57:02;5.28;;;3.92;;
24631;SDS011;59977;48.782;9.190;2023-11-22T00:59:28;7.07;;;4.03;;
24631;SDS011;59977;48.782;9.190;2023-11-22T01:01:54;5.82;;;4.25;;
24631;SDS011;59977;48.782;9.190;2023-11-22T01:04:20;6.55;;;4.50;;
24631;SDS011;59977;48.782;9.190;2023-11-22T01:06:46;5.57;;;4.18;;
24631;SDS011;59977;48.782;9.190;2023-11-22T01:09:12;7.65;;;4.50;;
24631;SDS011;59977;48.782;9.190;2023-11-22T01:11:39;5.70;;;4.30;;
24631;SDS011;59977;48.782;9.190;2023-11-22T01:14:04;6.28;;;4.47;;
24631;SDS011;59977;48.782;9.190;2023-11-22T01:16:30;5.82;;;4.25;;
24631;SDS011;59977;48.782;9.190;2023-11-22T01:18:56;7.55;;;4.30;;
24631;SDS011;59977;48.782;9.190;2023-11-22T01:21:21;8.68;;;4.50;;
24631;SDS011;59977;48.782;9.190;2023-11-22T01:23:47;6.03;;;4.20;;
24631;SDS011;59977;48.782;9.190;2023-11-22T01:26:13;5.88;;;4.25;;
24631;SDS011;59977;48.782;9.190;2023-11-22T01:28:38;8.18;;;4.18;;
24631;SDS011;59977;48.782;9.190;2023-11-22T01:31:10;5.65;;;4.22;;
24631;SDS011;59977;48.782;9.190;2023-11-22T01:33:36;5.80;;;4.30;;
24631;SDS011;59977;48.782;9.190;2023-11-22T01:36:02;6.70;;;4.32;;
24631;SDS011;59977;48.782;9.190;2023-11-22T01:38:28;8.00;;;4.43;;
24631;SDS011;59977;48.782;9.190;2023-11-22T01:40:53;5.43;;;4.13;;
24631;SDS011;59977;48.782;9.190;2023-11-22T01:43:19;5.78;;;3.95;;
24631;SDS011;59977;48.782;9.190;2023-11-22T01:45:48;5.53;;;3.80;;
24631;SDS011;59977;48.782;9.190;2023-11-22T01:48:14;5.63;;;3.38;;
24631;SDS011;59977;48.782;9.190;2023-11-22T01:50:41;7.78;;;4.40;;
24631;SDS011;59977;48.782;9.190;2023-11-22T01:53:10;5.82;;;3.88;;
24631;SDS011;59977;48.782;9.190;2023-11-22T01:55:37;6.85;;;3.65;;
24631;SDS011;59977;48.782;9.190;2023-11-22T01:58:04;5.72;;;3.30;;
24631;SDS011;59977;48.782;9.190;2023-11-22T02:00:32;5.47;;;3.38;;
24631;SDS011;59977;48.782;9.190;2023-11-22T02:03:01;5.40;;;3.45;;
24631;SDS011;59977;48.782;9.190;2023-11-22T02:05:27;7.55;;;3.97;;
24631;SDS011;59977;48.782;9.190;2023-11-22T02:07:53;5.38;;;3.30;;
24631;SDS011;59977;48.782;9.190;2023-11-22T02:10:19;4.93;;;3.38;;
24631;SDS011;59977;48.782;9.190;2023-11-22T02:12:45;11.80;;;3.30;;
24631;SDS011;59977;48.782;9.190;2023-11-22T02:15:11;4.80;;;3.35;;
24631;SDS011;59977;48.782;9.190;2023-11-22T02:17:37;6.72;;;3.22;;
24631;SDS011;59977;48.782;9.190;2023-11-22T02:20:03;5.55;;;3.58;;
24631;SDS011;59977;48.782;9.190;2023-11-22T02:22:42;4.53;;;2.83;;
24631;SDS011;59977;48.782;9.190;2023-11-22T02:25:11;4.75;;;3.50;;
24631;SDS011;59977;48.782;9.190;2023-11-22T02:27:37;4.45;;;3.55;;
24631;SDS011;59977;48.782;9.190;2023-11-22T02:30:04;6.25;;;3.65;;
24631;SDS011;59977;48.782;9.190;2023-11-22T02:32:31;4.63;;;3.30;;
24631;SDS011;59977;48.782;9.190;2023-11-22T02:34:56;4.68;;;3.45;;
24631;SDS011;59977;48.782;9.190;2023-11-22T02:37:22;4.97;;;2.90;;
24631;SDS011;59977;48.782;9.190;2023-11-22T02:40:06;5.28;;;3.53;;
24631;SDS011;59977;48.782;9.190;2023-11-22T02:42:43;7.82;;;3.28;;
24631;SDS011;59977;48.782;9.190;2023-11-22T02:45:08;4.32;;;3.22;;
24631;SDS011;59977;48.782;9.190;2023-11-22T02:47:34;7.13;;;3.53;;
24631;SDS011;59977;48.782;9.190;2023-11-22T02:50:01;3.53;;;2.70;;
24631;SDS011;59977;48.782;9.190;2023-11-22T02:52:27;6.10;;;3.42;;
24631;SDS011;59977;48.782;9.190;2023-11-22T02:54:53;4.40;;;3.00;;
24631;SDS011;59977;48.782;9.190;2023-11-22T02:57:19;4.00;;;3.15;;
24631;SDS011;59977;48.782;9.190;2023-11-22T02:59:45;5.10;;;3.58;;
24631;SDS011;59977;48.782;9.190;2023-11-22T03:02:11;5.03;;;3.47;;
24631;SDS011;59977;48.782;9.190;2023-11-22T03:04:36;4.93;;;3.17;;
24631;SDS011;59977;48.782;9.190;2023-11-22T03:07:02;4.13;;;2.95;;
24631;SDS011;59977;48.782;9.190;2023-11-22T03:09:28;6.60;;;3.20;;
24631;SDS011;59977;48.782;9.190;2023-11-22T03:11:54;5.35;;;3.33;;
24631;SDS011;59977;48.782;9.190;2023-11-22T03:14:20;6.20;;;3.42;;
24631;SDS011;59977;48.782;9.190;2023-11-22T03:16:47;5.25;;;3.50;;
24631;SDS011;59977;48.782;9.190;2023-11-22T03:19:13;5.70;;;3.75;;
24631;SDS011;59977;48.782;9.190;2023-11-22T03:21:39;5.40;;;3.60;;
24631;SDS011;59977;48.782;9.190;2023-11-22T03:24:06;5.70;;;3.60;;
24631;SDS011;59977;48.782;9.190;2023-11-22T03:26:33;4.53;;;3.40;;
24631;SDS011;59977;48.782;9.190;2023-11-22T03:28:59;4.68;;;3.28;;
24631;SDS011;59977;48.782;9.190;2023-11-22T03:31:26;5.00;;;2.95;;
24631;SDS011;59977;48.782;9.190;2023-11-22T03:33:52;5.18;;;3.30;;
24631;SDS011;59977;48.782;9.190;2023-11-22T03:36:19;5.75;;;3.70;;
24631;SDS011;59977;48.782;9.190;2023-11-22T03:38:45;6.18;;;3.67;;
24631;SDS011;59977;48.782;9.190;2023-11-22T03:41:11;6.30;;;3.60;;
24631;SDS011;59977;48.782;9.190;2023-11-22T03:43:37;5.18;;;3.30;;
24631;SDS011;59977;48.782;9.190;2023-11-22T03:46:03;8.10;;;3.75;;
24631;SDS011;59977;48.782;9.190;2023-11-22T03:48:29;9.18;;;3.78;;
24631;SDS011;59977;48.782;9.190;2023-11-22T03:50:54;4.88;;;3.35;;
24631;SDS011;59977;48.782;9.190;2023-11-22T03:53:20;4.93;;;3.28;;
24631;SDS011;59977;48.782;9.190;2023-11-22T03:55:47;4.35;;;3.33;;
24631;SDS011;59977;48.782;9.190;2023-11-22T03:58:14;8.60;;;3.80;;
24631;SDS011;59977;48.782;9.190;2023-11-22T04:00:40;6.55;;;3.70;;
24631;SDS011;59977;48.782;9.190;2023-11-22T04:03:05;7.22;;;3.78;;
24631;SDS011;59977;48.782;9.190;2023-11-22T04:05:31;6.05;;;3.70;;
24631;SDS011;59977;48.782;9.190;2023-11-22T04:07:57;4.55;;;3.42;;
24631;SDS011;59977;48.782;9.190;2023-11-22T04:10:23;6.07;;;4.10;;
24631;SDS011;59977;48.782;9.190;2023-11-22T04:12:49;8.30;;;3.78;;
24631;SDS011;59977;48.782;9.190;2023-11-22T04:15:14;5.55;;;3.88;;
24631;SDS011;59977;48.782;9.190;2023-11-22T04:17:40;8.32;;;4.00;;
24631;SDS011;59977;48.782;9.190;2023-11-22T04:20:07;9.10;;;4.00;;
24631;SDS011;59977;48.782;9.190;2023-11-22T04:22:40;7.57;;;4.00;;
24631;SDS011;59977;48.782;9.190;2023-11-22T04:25:06;10.52;;;4.47;;
24631;SDS011;59977;48.782;9.190;2023-11-22T04:27:33;5.63;;;3.80;;
24631;SDS011;59977;48.782;9.190;2023-11-22T04:29:59;9.82;;;4.35;;
24631;SDS011;59977;48.782;9.190;2023-11-22T04:32:25;5.00;;;3.83;;
24631;SDS011;59977;48.782;9.190;2023-11-22T04:34:51;6.68;;;4.05;;
24631;SDS011;59977;48.782;9.190;2023-11-22T04:37:16;5.82;;;4.10;;
24631;SDS011;59977;48.782;9.190;2023-11-22T04:39:42;6.25;;;4.20;;
24631;SDS011;59977;48.782;9.190;2023-11-22T04:42:08;7.13;;;4.07;;
24631;SDS011;59977;48.782;9.190;2023-11-22T04:44:34;7.13;;;4.05;;
24631;SDS011;59977;48.782;9.190;2023-11-22T04:47:00;8.00;;;4.10;;
24631;SDS011;59977;48.782;9.190;2023-11-22T04:49:26;6.88;;;4.18;;
24631;SDS011;59977;48.782;9.190;2023-11-22T04:51:52;8.27;;;4.05;;
24631;SDS011;59977;48.782;9.190;2023-11-22T04:54:17;5.70;;;3.88;;
24631;SDS011;59977;48.782;9.190;2023-11-22T04:56:43;5.82;;;4.00;;
24631;SDS011;59977;48.782;9.190;2023-11-22T04:59:09;5.65;;;3.97;;
24631;SDS011;59977;48.782;9.190;2023-11-22T05:01:35;6.57;;;3.95;;
24631;SDS011;59977;48.782;9.190;2023-11-22T05:04:01;11.73;;;4.05;;
24631;SDS011;59977;48.782;9.190;2023-11-22T05:06:27;5.68;;;3.85;;
24631;SDS011;59977;48.782;9.190;2023-11-22T05:08:54;8.23;;;3.40;;
24631;SDS011;59977;48.782;9.190;2023-11-22T05:11:20;8.48;;;3.97;;
24631;SDS011;59977;48.782;9.190;2023-11-22T05:13:46;5.88;;;4.18;;
24631;SDS011;59977;48.782;9.190;2023-11-22T05:16:12;6.07;;;3.95;;
24631;SDS011;59977;48.782;9.190;2023-11-22T05:18:38;8.25;;;3.92;;
24631;SDS011;59977;48.782;9.190;2023-11-22T05:21:04;5.53;;;3.35;;
24631;SDS011;59977;48.782;9.190;2023-11-22T05:23:30;5.88;;;3.70;;
24631;SDS011;59977;48.782;9.190;2023-11-22T05:25:57;6.13;;;3.22;;
24631;SDS011;59977;48.782;9.190;2023-11-22T05:28:24;5.38;;;3.50;;
24631;SDS011;59977;48.782;9.190;2023-11-22T05:30:50;8.30;;;3.30;;
24631;SDS011;59977;48.782;9.190;2023-11-22T05:33:16;5.22;;;3.03;;
24631;SDS011;59977;48.782;9.190;2023-11-22T05:35:42;7.93;;;3.53;;
24631;SDS011;59977;48.782;9.190;2023-11-22T05:38:08;8.57;;;4.25;;
24631;SDS011;59977;48.782;9.190;2023-11-22T05:40:35;7.20;;;4.10;;
24631;SDS011;59977;48.782;9.190;2023-11-22T05:43:01;7.15;;;4.07;;
24631;SDS011;59977;48.782;9.190;2023-11-22T05:45:26;6.45;;;3.55;;
24631;SDS011;59977;48.782;9.190;2023-11-22T05:47:52;5.45;;;3.33;;
24631;SDS011;59977;48.782;9.190;2023-11-22T05:50:18;5.80;;;3.33;;
24631;SDS011;59977;48.782;9.190;2023-11-22T05:52:44;5.70;;;3.42;;
24631;SDS011;59977;48.782;9.190;2023-11-22T05:55:10;7.18;;;3.80;;
24631;SDS011;59977;48.782;9.190;2023-11-22T05:57:39;9.23;;;3.78;;
24631;SDS011;59977;48.782;9.190;2023-11-22T06:00:05;6.43;;;3.70;;
24631;SDS011;59977;48.782;9.190;2023-11-22T06:02:32;6.55;;;3.50;;
24631;SDS011;59977;48.782;9.190;2023-11-22T06:04:57;5.32;;;3.47;;
24631;SDS011;59977;48.782;9.190;2023-11-22T06:07:23;6.03;;;3.50;;
24631;SDS011;59977;48.782;9.190;2023-11-22T06:09:49;4.90;;;3.50;;
24631;SDS011;59977;48.782;9.190;2023-11-22T06:12:15;4.72;;;3.30;;
24631;SDS011;59977;48.782;9.190;2023-11-22T06:14:41;5.57;;;3.42;;
24631;SDS011;59977;48.782;9.190;2023-11-22T06:17:07;4.90;;;3.60;;
24631;SDS011;59977;48.782;9.190;2023-11-22T06:19:33;7.18;;;3.65;;
24631;SDS011;59977;48.782;9.190;2023-11-22T06:24:15;6.82;;;4.05;;
24631;SDS011;59977;48.782;9.190;2023-11-22T06:26:44;6.13;;;3.60;;
24631;SDS011;59977;48.782;9.190;2023-11-22T06:29:12;9.40;;;3.72;;
24631;SDS011;59977;48.782;9.190;2023-11-22T06:31:38;4.75;;;3.00;;
24631;SDS011;59977;48.782;9.190;2023-11-22T06:34:05;5.20;;;3.40;;
24631;SDS011;59977;48.782;9.190;2023-11-22T06:36:30;5.63;;;3.45;;
24631;SDS011;59977;48.782;9.190;2023-11-22T06:38:56;6.63;;;3.20;;
24631;SDS011;59977;48.782;9.190;2023-11-22T06:41:22;6.50;;;3.65;;
24631;SDS011;59977;48.782;9.190;2023-11-22T06:43:50;5.10;;;3.03;;
24631;SDS011;59977;48.782;9.190;2023-11-22T06:46:16;6.35;;;3.30;;
24631;SDS011;59977;48.782;9.190;2023-11-22T06:48:42;6.10;;;2.90;;
24631;SDS011;59977;48.782;9.190;2023-11-22T06:51:13;5.90;;;2.90;;
24631;SDS011;59977;48.782;9.190;2023-11-22T06:53:39;5.80;;;3.42;;
24631;SDS011;59977;48.782;9.190;2023-11-22T06:56:05;11.23;;;3.30;;
24631;SDS011;59977;48.782;9.190;2023-11-22T06:58:31;4.90;;;3.17;;
24631;SDS011;59977;48.782;9.190;2023-11-22T07:00:57;3.95;;;2.90;;
24631;SDS011;59977;48.782;9.190;2023-11-22T07:03:23;6.30;;;3.30;;
24631;SDS011;59977;48.782;9.190;2023-11-22T07:05:49;7.13;;;3.60;;
24631;SDS011;59977;48.782;9.190;2023-11-22T07:08:15;7.78;;;3.05;;
24631;SDS011;59977;48.782;9.190;2023-11-22T07:10:42;5.15;;;3.25;;
24631;SDS011;59977;48.782;9.190;2023-11-22T07:20:47;7.53;;;2.95;;
24631;SDS011;59977;48.782;9.190;2023-11-22T07:33:14;6.32;;;2.90;;
24631;SDS011;59977;48.782;9.190;2023-11-22T07:39:17;5.18;;;2.50;;
24631;SDS011;59977;48.782;9.190;2023-11-22T07:54:57;8.65;;;3.13;;
24631;SDS011;59977;48.782;9.190;2023-11-22T07:57:34;5.97;;;2.95;;
24631;SDS011;59977;48.782;9.190;2023-11-22T08:00:00;7.10;;;3.20;;
24631;SDS011;59977;48.782;9.190;2023-11-22T08:18:22;7.78;;;3.30;;
24631;SDS011;59977;48.782;9.190;2023-11-22T08:21:01;12.70;;;3.35;;
24631;SDS011;59977;48.782;9.190;2023-11-22T08:33:35;11.68;;;3.00;;
24631;SDS011;59977;48.782;9.190;2023-11-22T08:36:02;5.10;;;3.50;;
24631;SDS011;59977;48.782;9.190;2023-11-22T08:38:29;5.40;;;3.60;;
24631;SDS011;59977;48.782;9.190;2023-11-22T08:40:58;6.55;;;3.25;;
24631;SDS011;59977;48.782;9.190;2023-11-22T08:43:25;7.05;;;2.90;;
24631;SDS011;59977;48.782;9.190;2023-11-22T08:45:51;5.85;;;3.50;;
24631;SDS011;59977;48.782;9.190;2023-11-22T08:48:17;9.23;;;3.83;;
24631;SDS011;59977;48.782;9.190;2023-11-22T08:50:43;6.47;;;3.08;;
24631;SDS011;59977;48.782;9.190;2023-11-22T08:53:10;16.27;;;3.47;;
24631;SDS011;59977;48.782;9.190;2023-11-22T08:55:36;4.32;;;2.95;;
24631;SDS011;59977;48.782;9.190;2023-11-22T08:58:02;10.40;;;3.65;;
24631;SDS011;59977;48.782;9.190;2023-11-22T09:00:28;5.22;;;3.75;;
24631;SDS011;59977;48.782;9.190;2023-11-22T09:02:57;6.00;;;3.28;;
24631;SDS011;59977;48.782;9.190;2023-11-22T09:05:23;4.82;;;3.30;;
24631;SDS011;59977;48.782;9.190;2023-11-22T09:07:49;8.70;;;3.60;;
24631;SDS011;59977;48.782;9.190;2023-11-22T09:10:16;6.63;;;3.67;;
24631;SDS011;59977;48.782;9.190;2023-11-22T09:12:43;9.68;;;3.70;;
24631;SDS011;59977;48.782;9.190;2023-11-22T09:15:10;9.77;;;4.00;;
24631;SDS011;59977;48.782;9.190;2023-11-22T09:17:38;5.82;;;3.30;;
24631;SDS011;59977;48.782;9.190;2023-11-22T09:20:11;5.10;;;3.42;;
24631;SDS011;59977;48.782;9.190;2023-11-22T09:22:41;6.63;;;3.85;;
24631;SDS011;59977;48.782;9.190;2023-11-22T09:25:10;5.78;;;3.60;;
24631;SDS011;59977;48.782;9.190;2023-11-22T09:27:37;5.38;;;3.90;;
24631;SDS011;59977;48.782;9.190;2023-11-22T09:30:05;6.10;;;3.67;;
24631;SDS011;59977;48.782;9.190;2023-11-22T09:32:31;8.10;;;3.92;;
24631;SDS011;59977;48.782;9.190;2023-11-22T09:34:57;4.97;;;3.67;;
24631;SDS011;59977;48.782;9.190;2023-11-22T09:37:23;9.15;;;4.00;;
24631;SDS011;59977;48.782;9.190;2023-11-22T09:39:50;5.53;;;3.63;;
24631;SDS011;59977;48.782;9.190;2023-11-22T09:42:16;10.45;;;4.40;;
24631;SDS011;59977;48.782;9.190;2023-11-22T09:44:41;5.65;;;3.22;;
24631;SDS011;59977;48.782;9.190;2023-11-22T09:47:08;7.10;;;4.07;;
24631;SDS011;59977;48.782;9.190;2023-11-22T09:49:34;6.72;;;3.75;;
24631;SDS011;59977;48.782;9.190;2023-11-22T09:52:05;7.57;;;3.90;;
24631;SDS011;59977;48.782;9.190;2023-11-22T09:57:05;7.35;;;4.15;;
24631;SDS011;59977;48.782;9.190;2023-11-22T09:59:33;9.60;;;4.28;;
24631;SDS011;59977;48.782;9.190;2023-11-22T10:02:00;9.48;;;4.18;;
24631;SDS011;59977;48.782;9.190;2023-11-22T10:04:28;7.88;;;4.30;;
24631;SDS011;59977;48.782;9.190;2023-11-22T10:06:57;6.55;;;3.88;;
24631;SDS011;59977;48.782;9.190;2023-11-22T10:09:26;12.23;;;4.30;;
24631;SDS011;59977;48.782;9.190;2023-11-22T10:11:57;8.40;;;4.03;;
24631;SDS011;59977;48.782;9.190;2023-11-22T10:14:26;6.80;;;3.90;;
24631;SDS011;59977;48.782;9.190;2023-11-22T10:17:01;6.55;;;4.03;;
24631;SDS011;59977;48.782;9.190;2023-11-22T10:19:28;9.63;;;4.03;;
24631;SDS011;59977;48.782;9.190;2023-11-22T10:22:03;6.22;;;3.90;;
24631;SDS011;59977;48.782;9.190;2023-11-22T10:24:34;7.35;;;4.30;;
24631;SDS011;59977;48.782;9.190;2023-11-22T10:27:00;6.57;;;4.15;;
24631;SDS011;59977;48.782;9.190;2023-11-22T10:29:26;9.60;;;4.38;;
24631;SDS011;59977;48.782;9.190;2023-11-22T10:31:52;10.23;;;4.40;;
24631;SDS011;59977;48.782;9.190;2023-11-22T10:34:20;11.68;;;4.97;;
24631;SDS011;59977;48.782;9.190;2023-11-22T10:36:47;9.85;;;4.75;;
24631;SDS011;59977;48.782;9.190;2023-11-22T10:39:13;6.45;;;4.13;;
24631;SDS011;59977;48.782;9.190;2023-11-22T10:41:41;9.52;;;4.35;;
24631;SDS011;59977;48.782;9.190;2023-11-22T10:44:08;7.82;;;4.35;;
24631;SDS011;59977;48.782;9.190;2023-11-22T10:46:35;11.07;;;4.18;;
24631;SDS011;59977;48.782;9.190;2023-11-22T10:49:02;6.85;;;4.38;;
24631;SDS011;59977;48.782;9.190;2023-11-22T10:51:30;8.68;;;4.70;;
24631;SDS011;59977;48.782;9.190;2023-11-22T10:53:56;13.65;;;5.13;;
24631;SDS011;59977;48.782;9.190;2023-11-22T10:56:25;8.88;;;4.40;;
24631;SDS011;59977;48.782;9.190;2023-11-22T10:58:56;6.85;;;4.20;;
24631;SDS011;59977;48.782;9.190;2023-11-22T11:01:25;7.57;;;4.43;;
24631;SDS011;59977;48.782;9.190;2023-11-22T11:06:20;9.60;;;4.53;;
24631;SDS011;59977;48.782;9.190;2023-11-22T11:08:56;10.65;;;5.18;;
24631;SDS011;59977;48.782;9.190;2023-11-22T11:11:24;7.47;;;4.55;;
24631;SDS011;59977;48.782;9.190;2023-11-22T11:13:51;8.90;;;4.60;;
24631;SDS011;59977;48.782;9.190;2023-11-22T11:16:17;9.18;;;4.60;;
24631;SDS011;59977;48.782;9.190;2023-11-22T11:18:44;9.18;;;4.60;;
24631;SDS011;59977;48.782;9.190;2023-11-22T11:21:10;8.10;;;4.45;;
24631;SDS011;59977;48.782;9.190;2023-11-22T11:23:38;9.50;;;5.00;;
24631;SDS011;59977;48.782;9.190;2023-11-22T11:26:09;7.80;;;4.30;;
24631;SDS011;59977;48.782;9.190;2023-11-22T11:28:44;7.88;;;4.60;;
24631;SDS011;59977;48.782;9.190;2023-11-22T11:31:12;8.85;;;4.43;;
24631;SDS011;59977;48.782;9.190;2023-11-22T11:36:28;9.30;;;5.20;;
24631;SDS011;59977;48.782;9.190;2023-11-22T11:38:57;8.68;;;4.97;;
24631;SDS011;59977;48.782;9.190;2023-11-22T11:41:26;7.05;;;4.50;;
24631;SDS011;59977;48.782;9.190;2023-11-22T11:43:53;7.20;;;4.93;;
24631;SDS011;59977;48.782;9.190;2023-11-22T11:46:19;8.90;;;4.53;;
24631;SDS011;59977;48.782;9.190;2023-11-22T11:48:48;7.63;;;5.10;;
24631;SDS011;59977;48.782;9.190;2023-11-22T11:51:16;10.70;;;5.22;;
24631;SDS011;59977;48.782;9.190;2023-11-22T11:53:45;10.50;;;4.97;;
24631;SDS011;59977;48.782;9.190;2023-11-22T11:56:12;7.75;;;5.00;;
24631;SDS011;59977;48.782;9.190;2023-11-22T11:58:38;9.75;;;5.10;;
24631;SDS011;59977;48.782;9.190;2023-11-22T12:01:05;7.55;;;4.78;;
24631;SDS011;59977;48.782;9.190;2023-11-22T12:03:32;8.07;;;5.03;;
24631;SDS011;59977;48.782;9.190;2023-11-22T12:05:58;10.02;;;5.03;;
24631;SDS011;59977;48.782;9.190;2023-11-22T12:08:24;7.50;;;4.82;;
24631;SDS011;59977;48.782;9.190;2023-11-22T12:10:50;8.23;;;4.78;;
24631;SDS011;59977;48.782;9.190;2023-11-22T12:13:16;7.28;;;4.55;;
24631;SDS011;59977;48.782;9.190;2023-11-22T12:15:46;9.63;;;5.35;;
24631;SDS011;59977;48.782;9.190;2023-11-22T12:18:12;10.93;;;5.57;;
24631;SDS011;59977;48.782;9.190;2023-11-22T12:20:39;8.00;;;5.00;;
24631;SDS011;59977;48.782;9.190;2023-11-22T12:23:05;9.02;;;5.00;;
24631;SDS011;59977;48.782;9.190;2023-11-22T12:25:32;7.82;;;5.05;;
24631;SDS011;59977;48.782;9.190;2023-11-22T12:27:58;8.07;;;5.10;;
24631;SDS011;59977;48.782;9.190;2023-11-22T12:30:28;8.00;;;4.80;;
24631;SDS011;59977;48.782;9.190;2023-11-22T12:32:54;8.68;;;5.05;;
24631;SDS011;59977;48.782;9.190;2023-11-22T12:35:22;8.57;;;5.63;;
24631;SDS011;59977;48.782;9.190;2023-11-22T12:37:50;7.22;;;4.68;;
24631;SDS011;59977;48.782;9.190;2023-11-22T12:40:19;8.82;;;4.75;;
24631;SDS011;59977;48.782;9.190;2023-11-22T12:42:52;8.23;;;5.18;;
24631;SDS011;59977;48.782;9.190;2023-11-22T12:45:22;12.10;;;5.10;;
24631;SDS011;59977;48.782;9.190;2023-11-22T12:47:49;11.57;;;5.60;;
24631;SDS011;59977;48.782;9.190;2023-11-22T12:50:35;10.35;;;4.60;;
24631;SDS011;59977;48.782;9.190;2023-11-22T12:53:22;9.32;;;4.63;;
24631;SDS011;59977;48.782;9.190;2023-11-22T12:55:51;8.43;;;5.13;;
24631;SDS011;59977;48.782;9.190;2023-11-22T12:58:18;8.63;;;5.25;;
24631;SDS011;59977;48.782;9.190;2023-11-22T13:00:49;9.32;;;4.57;;
24631;SDS011;59977;48.782;9.190;2023-11-22T13:03:16;9.45;;;4.82;;
24631;SDS011;59977;48.782;9.190;2023-11-22T13:05:42;9.63;;;4.85;;
24631;SDS011;59977;48.782;9.190;2023-11-22T13:08:09;12.82;;;5.65;;
24631;SDS011;59977;48.782;9.190;2023-11-22T13:10:48;13.05;;;5.30;;
24631;SDS011;59977;48.782;9.190;2023-11-22T13:13:21;7.10;;;5.10;;
24631;SDS011;59977;48.782;9.190;2023-11-22T13:15:47;11.05;;;5.72;;
24631;SDS011;59977;48.782;9.190;2023-11-22T13:18:16;6.95;;;5.03;;
24631;SDS011;59977;48.782;9.190;2023-11-22T13:20:43;13.43;;;5.47;;
24631;SDS011;59977;48.782;9.190;2023-11-22T13:23:09;9.77;;;5.15;;
24631;SDS011;59977;48.782;9.190;2023-11-22T13:25:35;10.27;;;5.18;;
24631;SDS011;59977;48.782;9.190;2023-11-22T13:28:02;12.07;;;5.80;;
24631;SDS011;59977;48.782;9.190;2023-11-22T13:30:29;11.70;;;5.03;;
24631;SDS011;59977;48.782;9.190;2023-11-22T13:32:55;12.85;;;5.50;;
24631;SDS011;59977;48.782;9.190;2023-11-22T13:35:22;9.90;;;5.10;;
24631;SDS011;59977;48.782;9.190;2023-11-22T13:37:49;8.75;;;5.22;;
24631;SDS011;59977;48.782;9.190;2023-11-22T13:40:16;8.55;;;4.85;;
24631;SDS011;59977;48.782;9.190;2023-11-22T13:42:42;13.18;;;5.38;;
24631;SDS011;59977;48.782;9.190;2023-11-22T13:45:10;12.27;;;5.50;;
24631;SDS011;59977;48.782;9.190;2023-11-22T13:47:40;10.52;;;5.93;;
24631;SDS011;59977;48.782;9.190;2023-11-22T13:50:07;10.57;;;5.20;;
24631;SDS011;59977;48.782;9.190;2023-11-22T13:52:33;10.90;;;4.95;;
24631;SDS011;59977;48.782;9.190;2023-11-22T13:54:59;9.15;;;5.28;;
24631;SDS011;59977;48.782;9.190;2023-11-22T13:57:26;8.10;;;5.28;;
24631;SDS011;59977;48.782;9.190;2023-11-22T13:59:52;11.77;;;5.47;;
24631;SDS011;59977;48.782;9.190;2023-11-22T14:02:19;7.35;;;4.85;;
24631;SDS011;59977;48.782;9.190;2023-11-22T14:04:45;10.55;;;5.32;;
24631;SDS011;59977;48.782;9.190;2023-11-22T14:07:11;9.63;;;5.70;;
24631;SDS011;59977;48.782;9.190;2023-11-22T14:09:37;8.73;;;4.90;;
24631;SDS011;59977;48.782;9.190;2023-11-22T14:12:03;14.23;;;5.88;;
24631;SDS011;59977;48.782;9.190;2023-11-22T14:14:29;17.40;;;5.55;;
24631;SDS011;59977;48.782;9.190;2023-11-22T14:16:55;8.40;;;5.10;;
24631;SDS011;59977;48.782;9.190;2023-11-22T14:19:21;9.55;;;5.30;;
24631;SDS011;59977;48.782;9.190;2023-11-22T14:21:47;11.48;;;5.72;;
24631;SDS011;59977;48.782;9.190;2023-11-22T14:24:13;10.75;;;5.78;;
24631;SDS011;59977;48.782;9.190;2023-11-22T14:26:39;10.73;;;5.55;;
24631;SDS011;59977;48.782;9.190;2023-11-22T14:29:05;12.80;;;5.43;;
24631;SDS011;59977;48.782;9.190;2023-11-22T14:31:31;12.60;;;5.60;;
24631;SDS011;59977;48.782;9.190;2023-11-22T14:33:57;11.95;;;5.47;;
24631;SDS011;59977;48.782;9.190;2023-11-22T14:36:26;12.30;;;5.40;;
24631;SDS011;59977;48.782;9.190;2023-11-22T14:38:52;7.20;;;5.20;;
24631;SDS011;59977;48.782;9.190;2023-11-22T14:41:21;9.48;;;5.53;;
24631;SDS011;59977;48.782;9.190;2023-11-22T14:43:48;10.05;;;6.15;;
24631;SDS011;59977;48.782;9.190;2023-11-22T14:46:14;16.30;;;5.47;;
24631;SDS011;59977;48.782;9.190;2023-11-22T14:48:40;7.85;;;5.05;;
24631;SDS011;59977;48.782;9.190;2023-11-22T14:51:07;10.68;;;5.53;;
24631;SDS011;59977;48.782;9.190;2023-11-22T14:53:34;8.82;;;5.10;;
24631;SDS011;59977;48.782;9.190;2023-11-22T14:56:00;7.63;;;4.93;;
24631;SDS011;59977;48.782;9.190;2023-11-22T14:58:28;9.55;;;5.45;;
24631;SDS011;59977;48.782;9.190;2023-11-22T15:00:54;11.07;;;5.63;;
24631;SDS011;59977;48.782;9.190;2023-11-22T15:03:22;8.25;;;5.07;;
24631;SDS011;59977;48.782;9.190;2023-11-22T15:05:49;14.35;;;4.45;;
24631;SDS011;59977;48.782;9.190;2023-11-22T15:08:15;9.55;;;5.03;;
24631;SDS011;59977;48.782;9.190;2023-11-22T15:10:41;9.00;;;5.05;;
24631;SDS011;59977;48.782;9.190;2023-11-22T15:13:07;16.42;;;5.82;;
24631;SDS011;59977;48.782;9.190;2023-11-22T15:15:33;10.50;;;5.70;;
24631;SDS011;59977;48.782;9.190;2023-11-22T15:18:00;10.75;;;5.50;;
24631;SDS011;59977;48.782;9.190;2023-11-22T15:20:26;9.40;;;5.60;;
24631;SDS011;59977;48.782;9.190;2023-11-22T15:22:52;9.70;;;4.80;;
24631;SDS011;59977;48.782;9.190;2023-11-22T15:25:18;7.13;;;4.93;;
24631;SDS011;59977;48.782;9.190;2023-11-22T15:27:44;11.02;;;4.65;;
24631;SDS011;59977;48.782;9.190;2023-11-22T15:30:10;7.95;;;4.95;;
24631;SDS011;59977;48.782;9.190;2023-11-22T15:32:37;10.77;;;4.70;;
24631;SDS011;59977;48.782;9.190;2023-11-22T15:35:03;8.93;;;5.25;;
24631;SDS011;59977;48.782;9.190;2023-11-22T15:37:30;10.45;;;5.25;;
24631;SDS011;59977;48.782;9.190;2023-11-22T15:39:56;8.90;;;5.57;;
24631;SDS011;59977;48.782;9.190;2023-11-22T15:43:28;9.60;;;5.53;;
24631;SDS011;59977;48.782;9.190;2023-11-22T15:45:55;10.25;;;5.50;;
24631;SDS011;59977;48.782;9.190;2023-11-22T15:48:20;12.15;;;5.72;;
24631;SDS011;59977;48.782;9.190;2023-11-22T15:50:46;10.63;;;5.50;;
24631;SDS011;59977;48.782;9.190;2023-11-22T15:53:12;9.50;;;5.80;;
24631;SDS011;59977;48.782;9.190;2023-11-22T15:55:39;12.73;;;5.07;;